sensor_id;sensor_type;location;lat;lon;timestamp;P1;durP1;ratioP1;P2;durP2;ratioP2
54555;SDS011;57291;37.520;15.106;2023-02-28T00:01:26;30.45;;;6.85;;
54555;SDS011;57291;37.520;15.106;2023-02-28T00:03:54;29.10;;;5.68;;
54555;SDS011;57291;37.520;15.106;2023-02-28T00:06:22;24.88;;;5.30;;
54555;SDS011;57291;37.520;15.106;2023-02-28T00:08:50;26.38;;;6.13;;
54555;SDS011;57291;37.520;15.106;2023-02-28T00:11:18;29.63;;;4.60;;
54555;SDS011;57291;37.520;15.106;2023-02-28T00:13:46;18.77;;;5.13;;
54555;SDS011;57291;37.520;15.106;2023-02-28T00:16:18;27.85;;;5.20;;
54555;SDS011;57291;37.520;15.106;2023-02-28T00:18:47;32.70;;;5.53;;
54555;SDS011;57291;37.520;15.106;2023-02-28T00:21:15;30.52;;;5.35;;
54555;SDS011;57291;37.520;15.106;2023-02-28T00:23:43;35.72;;;7.15;;
54555;SDS011;57291;37.520;15.106;2023-02-28T00:26:10;31.83;;;7.25;;
54555;SDS011;57291;37.520;15.106;2023-02-28T00:28:40;35.00;;;8.68;;
54555;SDS011;57291;37.520;15.106;2023-02-28T00:31:07;35.45;;;8.90;;
54555;SDS011;57291;37.520;15.106;2023-02-28T00:33:34;35.70;;;8.27;;
54555;SDS011;57291;37.520;15.106;2023-02-28T00:36:06;38.75;;;8.68;;
54555;SDS011;57291;37.520;15.106;2023-02-28T00:38:35;28.77;;;7.63;;
54555;SDS011;57291;37.520;15.106;2023-02-28T00:41:03;37.70;;;7.38;;
54555;SDS011;57291;37.520;15.106;2023-02-28T00:43:32;46.72;;;8.45;;
54555;SDS011;57291;37.520;15.106;2023-02-28T00:46:01;33.60;;;6.80;;
54555;SDS011;57291;37.520;15.106;2023-02-28T00:48:29;27.08;;;5.95;;
54555;SDS011;57291;37.520;15.106;2023-02-28T00:50:57;20.08;;;5.45;;
54555;SDS011;57291;37.520;15.106;2023-02-28T00:53:24;27.55;;;5.32;;
54555;SDS011;57291;37.520;15.106;2023-02-28T00:55:51;20.67;;;4.80;;
54555;SDS011;57291;37.520;15.106;2023-02-28T00:58:19;23.98;;;5.13;;
54555;SDS011;57291;37.520;15.106;2023-02-28T01:00:46;26.70;;;4.50;;
54555;SDS011;57291;37.520;15.106;2023-02-28T01:03:16;24.83;;;5.05;;
54555;SDS011;57291;37.520;15.106;2023-02-28T01:05:45;16.60;;;3.97;;
54555;SDS011;57291;37.520;15.106;2023-02-28T01:08:15;13.38;;;3.53;;
54555;SDS011;57291;37.520;15.106;2023-02-28T01:10:43;17.33;;;3.90;;
54555;SDS011;57291;37.520;15.106;2023-02-28T01:13:11;21.30;;;4.10;;
54555;SDS011;57291;37.520;15.106;2023-02-28T01:15:42;27.92;;;4.65;;
54555;SDS011;57291;37.520;15.106;2023-02-28T01:18:12;23.83;;;4.32;;
54555;SDS011;57291;37.520;15.106;2023-02-28T01:20:40;18.65;;;3.65;;
54555;SDS011;57291;37.520;15.106;2023-02-28T01:23:08;28.27;;;4.28;;
54555;SDS011;57291;37.520;15.106;2023-02-28T01:25:36;23.77;;;4.38;;
54555;SDS011;57291;37.520;15.106;2023-02-28T01:28:04;16.60;;;4.68;;
54555;SDS011;57291;37.520;15.106;2023-02-28T01:30:33;21.83;;;3.80;;
54555;SDS011;57291;37.520;15.106;2023-02-28T01:33:00;29.17;;;5.25;;
54555;SDS011;57291;37.520;15.106;2023-02-28T01:35:28;30.15;;;3.78;;
54555;SDS011;57291;37.520;15.106;2023-02-28T01:37:55;22.40;;;3.83;;
54555;SDS011;57291;37.520;15.106;2023-02-28T01:40:32;22.63;;;3.42;;
54555;SDS011;57291;37.520;15.106;2023-02-28T01:42:59;31.20;;;4.35;;
54555;SDS011;57291;37.520;15.106;2023-02-28T01:45:29;26.23;;;4.68;;
54555;SDS011;57291;37.520;15.106;2023-02-28T01:47:58;22.35;;;3.80;;
54555;SDS011;57291;37.520;15.106;2023-02-28T01:50:31;21.92;;;3.75;;
54555;SDS011;57291;37.520;15.106;2023-02-28T01:53:06;21.13;;;4.03;;
54555;SDS011;57291;37.520;15.106;2023-02-28T01:55:37;23.60;;;3.40;;
54555;SDS011;57291;37.520;15.106;2023-02-28T01:58:06;17.45;;;4.00;;
54555;SDS011;57291;37.520;15.106;2023-02-28T02:00:35;21.85;;;4.25;;
54555;SDS011;57291;37.520;15.106;2023-02-28T02:03:07;29.23;;;4.18;;
54555;SDS011;57291;37.520;15.106;2023-02-28T02:05:38;29.02;;;3.65;;
54555;SDS011;57291;37.520;15.106;2023-02-28T02:08:08;17.75;;;3.60;;
54555;SDS011;57291;37.520;15.106;2023-02-28T02:11:00;19.77;;;3.65;;
54555;SDS011;57291;37.520;15.106;2023-02-28T02:18:47;26.05;;;4.75;;
54555;SDS011;57291;37.520;15.106;2023-02-28T02:32:09;19.98;;;3.08;;
54555;SDS011;57291;37.520;15.106;2023-02-28T02:37:36;19.35;;;3.17;;
54555;SDS011;57291;37.520;15.106;2023-02-28T02:40:14;25.70;;;3.08;;
54555;SDS011;57291;37.520;15.106;2023-02-28T02:43:01;20.27;;;2.65;;
54555;SDS011;57291;37.520;15.106;2023-02-28T02:45:55;26.38;;;3.33;;
54555;SDS011;57291;37.520;15.106;2023-02-28T02:48:26;18.52;;;3.03;;
54555;SDS011;57291;37.520;15.106;2023-02-28T02:50:58;28.23;;;3.72;;
54555;SDS011;57291;37.520;15.106;2023-02-28T02:53:37;23.10;;;4.07;;
54555;SDS011;57291;37.520;15.106;2023-02-28T02:56:19;13.82;;;2.40;;
54555;SDS011;57291;37.520;15.106;2023-02-28T02:58:51;15.83;;;2.63;;
54555;SDS011;57291;37.520;15.106;2023-02-28T03:01:23;21.65;;;3.72;;
54555;SDS011;57291;37.520;15.106;2023-02-28T03:04:05;42.28;;;3.95;;
54555;SDS011;57291;37.520;15.106;2023-02-28T03:06:38;16.50;;;3.03;;
54555;SDS011;57291;37.520;15.106;2023-02-28T03:09:05;27.48;;;4.00;;
54555;SDS011;57291;37.520;15.106;2023-02-28T03:11:32;27.42;;;4.50;;
54555;SDS011;57291;37.520;15.106;2023-02-28T03:16:45;38.67;;;4.35;;
54555;SDS011;57291;37.520;15.106;2023-02-28T03:22:26;29.13;;;3.67;;
54555;SDS011;57291;37.520;15.106;2023-02-28T03:33:45;32.03;;;4.07;;
54555;SDS011;57291;37.520;15.106;2023-02-28T03:36:25;28.63;;;4.55;;
54555;SDS011;57291;37.520;15.106;2023-02-28T03:38:59;26.38;;;4.80;;
54555;SDS011;57291;37.520;15.106;2023-02-28T03:41:44;25.85;;;3.47;;
54555;SDS011;57291;37.520;15.106;2023-02-28T03:44:24;28.73;;;3.60;;
54555;SDS011;57291;37.520;15.106;2023-02-28T03:46:58;28.17;;;4.15;;
54555;SDS011;57291;37.520;15.106;2023-02-28T03:49:32;31.90;;;4.97;;
54555;SDS011;57291;37.520;15.106;2023-02-28T03:52:14;32.03;;;4.97;;
54555;SDS011;57291;37.520;15.106;2023-02-28T03:54:45;40.38;;;4.80;;
54555;SDS011;57291;37.520;15.106;2023-02-28T03:59:44;30.02;;;5.32;;
54555;SDS011;57291;37.520;15.106;2023-02-28T04:02:16;41.90;;;4.78;;
54555;SDS011;57291;37.520;15.106;2023-02-28T04:04:45;28.08;;;3.63;;
54555;SDS011;57291;37.520;15.106;2023-02-28T04:07:15;38.50;;;4.53;;
54555;SDS011;57291;37.520;15.106;2023-02-28T04:09:43;26.98;;;5.03;;
54555;SDS011;57291;37.520;15.106;2023-02-28T04:12:10;30.33;;;3.90;;
54555;SDS011;57291;37.520;15.106;2023-02-28T04:14:37;29.27;;;4.25;;
54555;SDS011;57291;37.520;15.106;2023-02-28T04:17:04;35.55;;;4.82;;
54555;SDS011;57291;37.520;15.106;2023-02-28T04:19:32;25.08;;;4.38;;
54555;SDS011;57291;37.520;15.106;2023-02-28T04:21:59;25.95;;;3.80;;
54555;SDS011;57291;37.520;15.106;2023-02-28T04:24:26;27.65;;;3.63;;
54555;SDS011;57291;37.520;15.106;2023-02-28T04:26:55;27.60;;;3.60;;
54555;SDS011;57291;37.520;15.106;2023-02-28T04:29:24;28.25;;;3.78;;
54555;SDS011;57291;37.520;15.106;2023-02-28T04:31:53;27.95;;;3.55;;
54555;SDS011;57291;37.520;15.106;2023-02-28T04:34:21;26.23;;;3.22;;
54555;SDS011;57291;37.520;15.106;2023-02-28T04:36:50;37.70;;;3.40;;
54555;SDS011;57291;37.520;15.106;2023-02-28T04:39:37;22.42;;;3.33;;
54555;SDS011;57291;37.520;15.106;2023-02-28T04:42:04;26.65;;;3.20;;
54555;SDS011;57291;37.520;15.106;2023-02-28T04:44:31;19.42;;;3.47;;
54555;SDS011;57291;37.520;15.106;2023-02-28T04:46:59;18.02;;;3.40;;
54555;SDS011;57291;37.520;15.106;2023-02-28T04:49:26;14.85;;;2.63;;
54555;SDS011;57291;37.520;15.106;2023-02-28T04:51:53;14.93;;;2.75;;
54555;SDS011;57291;37.520;15.106;2023-02-28T04:54:21;17.00;;;3.08;;
54555;SDS011;57291;37.520;15.106;2023-02-28T04:56:48;19.48;;;3.22;;
54555;SDS011;57291;37.520;15.106;2023-02-28T04:59:16;22.38;;;3.13;;
54555;SDS011;57291;37.520;15.106;2023-02-28T05:01:47;14.05;;;3.10;;
54555;SDS011;57291;37.520;15.106;2023-02-28T05:04:15;20.70;;;4.30;;
54555;SDS011;57291;37.520;15.106;2023-02-28T05:06:43;29.00;;;3.70;;
54555;SDS011;57291;37.520;15.106;2023-02-28T05:09:10;22.17;;;2.92;;
54555;SDS011;57291;37.520;15.106;2023-02-28T05:11:39;19.38;;;3.60;;
54555;SDS011;57291;37.520;15.106;2023-02-28T05:14:11;22.17;;;2.70;;
54555;SDS011;57291;37.520;15.106;2023-02-28T05:16:39;20.38;;;2.80;;
54555;SDS011;57291;37.520;15.106;2023-02-28T05:19:07;17.63;;;3.10;;
54555;SDS011;57291;37.520;15.106;2023-02-28T05:21:35;26.60;;;4.03;;
54555;SDS011;57291;37.520;15.106;2023-02-28T05:24:05;20.23;;;3.50;;
54555;SDS011;57291;37.520;15.106;2023-02-28T05:26:39;27.92;;;4.15;;
54555;SDS011;57291;37.520;15.106;2023-02-28T05:29:08;27.55;;;3.42;;
54555;SDS011;57291;37.520;15.106;2023-02-28T05:31:36;21.65;;;3.00;;
54555;SDS011;57291;37.520;15.106;2023-02-28T05:34:03;21.52;;;3.40;;
54555;SDS011;57291;37.520;15.106;2023-02-28T05:36:31;24.60;;;3.65;;
54555;SDS011;57291;37.520;15.106;2023-02-28T05:38:58;23.15;;;3.72;;
54555;SDS011;57291;37.520;15.106;2023-02-28T05:41:25;25.90;;;3.10;;
54555;SDS011;57291;37.520;15.106;2023-02-28T05:43:53;25.38;;;3.97;;
54555;SDS011;57291;37.520;15.106;2023-02-28T05:46:21;24.20;;;3.63;;
54555;SDS011;57291;37.520;15.106;2023-02-28T05:48:48;28.42;;;5.13;;
54555;SDS011;57291;37.520;15.106;2023-02-28T05:51:15;24.42;;;3.50;;
54555;SDS011;57291;37.520;15.106;2023-02-28T05:53:43;18.85;;;3.28;;
54555;SDS011;57291;37.520;15.106;2023-02-28T05:56:11;28.60;;;3.35;;
54555;SDS011;57291;37.520;15.106;2023-02-28T05:58:38;29.90;;;4.45;;
54555;SDS011;57291;37.520;15.106;2023-02-28T06:03:51;26.52;;;4.47;;
54555;SDS011;57291;37.520;15.106;2023-02-28T06:06:18;26.33;;;3.65;;
54555;SDS011;57291;37.520;15.106;2023-02-28T06:08:45;21.58;;;3.42;;
54555;SDS011;57291;37.520;15.106;2023-02-28T06:11:12;44.50;;;4.97;;
54555;SDS011;57291;37.520;15.106;2023-02-28T06:13:40;31.67;;;4.70;;
54555;SDS011;57291;37.520;15.106;2023-02-28T06:16:08;44.95;;;6.75;;
54555;SDS011;57291;37.520;15.106;2023-02-28T06:18:37;37.53;;;5.45;;
54555;SDS011;57291;37.520;15.106;2023-02-28T06:21:05;36.28;;;5.80;;
54555;SDS011;57291;37.520;15.106;2023-02-28T06:23:32;39.60;;;6.40;;
54555;SDS011;57291;37.520;15.106;2023-02-28T06:25:59;53.45;;;6.55;;
54555;SDS011;57291;37.520;15.106;2023-02-28T06:28:27;50.67;;;7.10;;
54555;SDS011;57291;37.520;15.106;2023-02-28T06:30:54;62.63;;;7.43;;
54555;SDS011;57291;37.520;15.106;2023-02-28T06:33:21;73.50;;;8.55;;
54555;SDS011;57291;37.520;15.106;2023-02-28T06:35:51;51.63;;;7.82;;
54555;SDS011;57291;37.520;15.106;2023-02-28T06:38:19;68.15;;;7.63;;
54555;SDS011;57291;37.520;15.106;2023-02-28T06:40:52;57.50;;;7.32;;
54555;SDS011;57291;37.520;15.106;2023-02-28T06:43:23;75.13;;;9.20;;
54555;SDS011;57291;37.520;15.106;2023-02-28T06:45:54;82.03;;;9.27;;
54555;SDS011;57291;37.520;15.106;2023-02-28T06:48:23;62.33;;;7.72;;
54555;SDS011;57291;37.520;15.106;2023-02-28T06:50:50;72.80;;;8.50;;
54555;SDS011;57291;37.520;15.106;2023-02-28T06:53:17;69.80;;;9.70;;
54555;SDS011;57291;37.520;15.106;2023-02-28T06:55:44;78.60;;;9.85;;
54555;SDS011;57291;37.520;15.106;2023-02-28T06:58:11;72.07;;;8.93;;
54555;SDS011;57291;37.520;15.106;2023-02-28T07:00:42;80.32;;;9.60;;
54555;SDS011;57291;37.520;15.106;2023-02-28T07:03:10;89.93;;;10.38;;
54555;SDS011;57291;37.520;15.106;2023-02-28T07:05:39;82.57;;;12.30;;
54555;SDS011;57291;37.520;15.106;2023-02-28T07:08:06;85.20;;;12.25;;
54555;SDS011;57291;37.520;15.106;2023-02-28T07:10:34;83.20;;;10.60;;
54555;SDS011;57291;37.520;15.106;2023-02-28T07:13:04;87.70;;;11.63;;
54555;SDS011;57291;37.520;15.106;2023-02-28T07:15:32;97.10;;;12.15;;
54555;SDS011;57291;37.520;15.106;2023-02-28T07:17:59;91.63;;;10.40;;
54555;SDS011;57291;37.520;15.106;2023-02-28T07:20:28;86.40;;;10.88;;
54555;SDS011;57291;37.520;15.106;2023-02-28T07:22:56;90.47;;;12.80;;
54555;SDS011;57291;37.520;15.106;2023-02-28T07:25:24;99.10;;;10.32;;
54555;SDS011;57291;37.520;15.106;2023-02-28T07:27:53;71.50;;;10.05;;
54555;SDS011;57291;37.520;15.106;2023-02-28T07:30:21;95.03;;;11.98;;
54555;SDS011;57291;37.520;15.106;2023-02-28T07:32:48;87.63;;;10.85;;
54555;SDS011;57291;37.520;15.106;2023-02-28T07:35:15;83.10;;;11.05;;
54555;SDS011;57291;37.520;15.106;2023-02-28T07:37:42;85.47;;;10.75;;
54555;SDS011;57291;37.520;15.106;2023-02-28T07:40:10;81.65;;;10.07;;
54555;SDS011;57291;37.520;15.106;2023-02-28T07:42:38;80.00;;;10.75;;
54555;SDS011;57291;37.520;15.106;2023-02-28T07:45:08;83.85;;;10.70;;
54555;SDS011;57291;37.520;15.106;2023-02-28T07:47:38;77.20;;;9.88;;
54555;SDS011;57291;37.520;15.106;2023-02-28T07:50:06;78.93;;;10.88;;
54555;SDS011;57291;37.520;15.106;2023-02-28T07:52:37;66.15;;;10.02;;
54555;SDS011;57291;37.520;15.106;2023-02-28T07:55:05;73.38;;;8.95;;
54555;SDS011;57291;37.520;15.106;2023-02-28T07:57:33;71.93;;;9.73;;
54555;SDS011;57291;37.520;15.106;2023-02-28T08:00:01;70.07;;;10.20;;
54555;SDS011;57291;37.520;15.106;2023-02-28T08:02:36;76.53;;;9.85;;
54555;SDS011;57291;37.520;15.106;2023-02-28T08:05:04;85.72;;;11.63;;
54555;SDS011;57291;37.520;15.106;2023-02-28T08:07:32;82.47;;;11.10;;
54555;SDS011;57291;37.520;15.106;2023-02-28T08:09:59;71.38;;;9.35;;
54555;SDS011;57291;37.520;15.106;2023-02-28T08:12:27;66.57;;;8.85;;
54555;SDS011;57291;37.520;15.106;2023-02-28T08:14:54;70.70;;;8.27;;
54555;SDS011;57291;37.520;15.106;2023-02-28T08:17:21;64.90;;;7.70;;
54555;SDS011;57291;37.520;15.106;2023-02-28T08:19:48;80.63;;;9.32;;
54555;SDS011;57291;37.520;15.106;2023-02-28T08:26:42;74.20;;;9.40;;
54555;SDS011;57291;37.520;15.106;2023-02-28T08:29:10;56.20;;;7.85;;
54555;SDS011;57291;37.520;15.106;2023-02-28T08:31:37;55.92;;;8.88;;
54555;SDS011;57291;37.520;15.106;2023-02-28T08:34:08;81.65;;;9.18;;
54555;SDS011;57291;37.520;15.106;2023-02-28T08:36:38;75.75;;;8.52;;
54555;SDS011;57291;37.520;15.106;2023-02-28T08:39:06;66.35;;;8.90;;
54555;SDS011;57291;37.520;15.106;2023-02-28T08:41:34;68.10;;;8.23;;
54555;SDS011;57291;37.520;15.106;2023-02-28T08:44:01;77.05;;;8.63;;
54555;SDS011;57291;37.520;15.106;2023-02-28T08:46:28;62.20;;;7.55;;
54555;SDS011;57291;37.520;15.106;2023-02-28T08:48:56;70.25;;;9.60;;
54555;SDS011;57291;37.520;15.106;2023-02-28T08:51:28;65.38;;;7.53;;
54555;SDS011;57291;37.520;15.106;2023-02-28T08:54:00;66.43;;;8.73;;
54555;SDS011;57291;37.520;15.106;2023-02-28T08:56:28;63.50;;;7.72;;
54555;SDS011;57291;37.520;15.106;2023-02-28T08:58:56;66.78;;;8.27;;
54555;SDS011;57291;37.520;15.106;2023-02-28T09:01:25;70.20;;;8.93;;
54555;SDS011;57291;37.520;15.106;2023-02-28T09:03:55;63.25;;;9.15;;
54555;SDS011;57291;37.520;15.106;2023-02-28T09:06:24;70.28;;;8.88;;
54555;SDS011;57291;37.520;15.106;2023-02-28T09:08:55;73.70;;;8.00;;
54555;SDS011;57291;37.520;15.106;2023-02-28T09:11:25;64.03;;;10.10;;
54555;SDS011;57291;37.520;15.106;2023-02-28T09:13:52;67.20;;;9.63;;
54555;SDS011;57291;37.520;15.106;2023-02-28T09:16:19;66.60;;;9.45;;
54555;SDS011;57291;37.520;15.106;2023-02-28T09:18:46;75.45;;;8.65;;
54555;SDS011;57291;37.520;15.106;2023-02-28T09:21:15;69.57;;;8.50;;
54555;SDS011;57291;37.520;15.106;2023-02-28T09:23:45;68.22;;;9.25;;
54555;SDS011;57291;37.520;15.106;2023-02-28T09:26:14;79.47;;;8.95;;
54555;SDS011;57291;37.520;15.106;2023-02-28T09:28:46;74.30;;;8.05;;
54555;SDS011;57291;37.520;15.106;2023-02-28T09:31:16;70.78;;;8.85;;
54555;SDS011;57291;37.520;15.106;2023-02-28T09:33:49;62.80;;;8.13;;
54555;SDS011;57291;37.520;15.106;2023-02-28T09:36:18;58.67;;;8.60;;
54555;SDS011;57291;37.520;15.106;2023-02-28T09:38:47;62.88;;;7.85;;
54555;SDS011;57291;37.520;15.106;2023-02-28T09:41:19;78.13;;;9.18;;
54555;SDS011;57291;37.520;15.106;2023-02-28T09:43:55;65.35;;;8.80;;
54555;SDS011;57291;37.520;15.106;2023-02-28T09:49:04;57.35;;;8.38;;
54555;SDS011;57291;37.520;15.106;2023-02-28T09:54:16;57.50;;;9.45;;
54555;SDS011;57291;37.520;15.106;2023-02-28T09:57:00;72.13;;;8.68;;
54555;SDS011;57291;37.520;15.106;2023-02-28T09:59:41;63.13;;;8.98;;
54555;SDS011;57291;37.520;15.106;2023-02-28T10:05:16;68.53;;;7.95;;
54555;SDS011;57291;37.520;15.106;2023-02-28T10:10:39;74.43;;;10.10;;
54555;SDS011;57291;37.520;15.106;2023-02-28T10:13:22;63.85;;;8.80;;
54555;SDS011;57291;37.520;15.106;2023-02-28T10:19:15;80.53;;;9.00;;
54555;SDS011;57291;37.520;15.106;2023-02-28T10:24:30;62.88;;;8.82;;
54555;SDS011;57291;37.520;15.106;2023-02-28T10:27:21;74.18;;;9.13;;
54555;SDS011;57291;37.520;15.106;2023-02-28T10:29:54;70.07;;;7.93;;
54555;SDS011;57291;37.520;15.106;2023-02-28T10:32:23;68.15;;;9.32;;
54555;SDS011;57291;37.520;15.106;2023-02-28T10:34:57;65.90;;;8.93;;
54555;SDS011;57291;37.520;15.106;2023-02-28T10:37:27;72.68;;;8.95;;
54555;SDS011;57291;37.520;15.106;2023-02-28T10:39:54;77.72;;;9.43;;
54555;SDS011;57291;37.520;15.106;2023-02-28T10:47:38;70.05;;;8.73;;
54555;SDS011;57291;37.520;15.106;2023-02-28T10:55:57;72.57;;;9.48;;
54555;SDS011;57291;37.520;15.106;2023-02-28T11:01:46;75.03;;;9.10;;
54555;SDS011;57291;37.520;15.106;2023-02-28T11:04:31;78.57;;;10.30;;
54555;SDS011;57291;37.520;15.106;2023-02-28T11:09:50;78.30;;;8.75;;
54555;SDS011;57291;37.520;15.106;2023-02-28T11:14:53;69.93;;;8.98;;
54555;SDS011;57291;37.520;15.106;2023-02-28T11:17:32;70.38;;;9.38;;
54555;SDS011;57291;37.520;15.106;2023-02-28T11:20:06;67.95;;;8.30;;
54555;SDS011;57291;37.520;15.106;2023-02-28T11:22:44;76.13;;;9.13;;
54555;SDS011;57291;37.520;15.106;2023-02-28T11:25:56;68.80;;;8.77;;
54555;SDS011;57291;37.520;15.106;2023-02-28T11:28:05;68.10;;;9.00;;
54555;SDS011;57291;37.520;15.106;2023-02-28T11:31:02;74.15;;;8.48;;
54555;SDS011;57291;37.520;15.106;2023-02-28T11:33:37;76.35;;;9.25;;
54555;SDS011;57291;37.520;15.106;2023-02-28T11:36:13;77.45;;;10.63;;
54555;SDS011;57291;37.520;15.106;2023-02-28T11:38:41;70.38;;;8.57;;
54555;SDS011;57291;37.520;15.106;2023-02-28T11:44:14;92.57;;;8.40;;
54555;SDS011;57291;37.520;15.106;2023-02-28T11:46:47;57.47;;;7.43;;
54555;SDS011;57291;37.520;15.106;2023-02-28T11:52:40;73.47;;;10.40;;
54555;SDS011;57291;37.520;15.106;2023-02-28T12:06:18;85.88;;;9.13;;
54555;SDS011;57291;37.520;15.106;2023-02-28T12:11:48;94.50;;;11.18;;
54555;SDS011;57291;37.520;15.106;2023-02-28T12:17:13;87.57;;;10.82;;
54555;SDS011;57291;37.520;15.106;2023-02-28T12:27:48;90.90;;;10.90;;
54555;SDS011;57291;37.520;15.106;2023-02-28T12:30:24;81.22;;;11.43;;
54555;SDS011;57291;37.520;15.106;2023-02-28T12:32:55;96.55;;;11.02;;
54555;SDS011;57291;37.520;15.106;2023-02-28T12:35:49;98.85;;;11.93;;
54555;SDS011;57291;37.520;15.106;2023-02-28T12:38:23;85.22;;;11.02;;
54555;SDS011;57291;37.520;15.106;2023-02-28T12:40:56;89.60;;;10.55;;
54555;SDS011;57291;37.520;15.106;2023-02-28T12:43:32;80.03;;;9.65;;
54555;SDS011;57291;37.520;15.106;2023-02-28T12:48:47;86.50;;;9.95;;
54555;SDS011;57291;37.520;15.106;2023-02-28T12:51:20;87.13;;;9.23;;
54555;SDS011;57291;37.520;15.106;2023-02-28T12:59:33;74.65;;;10.18;;
54555;SDS011;57291;37.520;15.106;2023-02-28T13:02:23;79.30;;;10.15;;
54555;SDS011;57291;37.520;15.106;2023-02-28T13:05:29;80.80;;;10.40;;
54555;SDS011;57291;37.520;15.106;2023-02-28T13:10:40;72.47;;;9.30;;
54555;SDS011;57291;37.520;15.106;2023-02-28T13:13:18;92.85;;;10.98;;
54555;SDS011;57291;37.520;15.106;2023-02-28T13:18:47;69.68;;;9.15;;
54555;SDS011;57291;37.520;15.106;2023-02-28T13:21:22;80.18;;;9.45;;
54555;SDS011;57291;37.520;15.106;2023-02-28T13:34:32;81.03;;;10.52;;
54555;SDS011;57291;37.520;15.106;2023-02-28T13:39:49;68.97;;;8.93;;
54555;SDS011;57291;37.520;15.106;2023-02-28T13:42:33;93.82;;;11.40;;
54555;SDS011;57291;37.520;15.106;2023-02-28T13:47:32;80.30;;;10.48;;
54555;SDS011;57291;37.520;15.106;2023-02-28T14:06:54;51.50;;;6.18;;
54555;SDS011;57291;37.520;15.106;2023-02-28T14:09:27;55.35;;;6.60;;
54555;SDS011;57291;37.520;15.106;2023-02-28T14:15:30;62.30;;;7.50;;
54555;SDS011;57291;37.520;15.106;2023-02-28T14:18:14;61.40;;;6.82;;
54555;SDS011;57291;37.520;15.106;2023-02-28T14:20:46;60.17;;;7.75;;
54555;SDS011;57291;37.520;15.106;2023-02-28T14:28:59;60.40;;;8.18;;
54555;SDS011;57291;37.520;15.106;2023-02-28T14:31:51;54.70;;;6.82;;
54555;SDS011;57291;37.520;15.106;2023-02-28T14:34:41;54.65;;;5.90;;
54555;SDS011;57291;37.520;15.106;2023-02-28T14:37:30;65.05;;;7.20;;
54555;SDS011;57291;37.520;15.106;2023-02-28T14:40:03;64.68;;;7.75;;
54555;SDS011;57291;37.520;15.106;2023-02-28T14:42:35;87.28;;;8.38;;
54555;SDS011;57291;37.520;15.106;2023-02-28T14:45:17;70.38;;;8.57;;
54555;SDS011;57291;37.520;15.106;2023-02-28T14:47:51;64.22;;;7.18;;
54555;SDS011;57291;37.520;15.106;2023-02-28T14:50:37;67.72;;;8.85;;
54555;SDS011;57291;37.520;15.106;2023-02-28T14:53:04;60.05;;;8.38;;
54555;SDS011;57291;37.520;15.106;2023-02-28T14:55:44;58.10;;;9.05;;
54555;SDS011;57291;37.520;15.106;2023-02-28T14:58:32;72.55;;;8.38;;
54555;SDS011;57291;37.520;15.106;2023-02-28T15:01:01;72.35;;;9.07;;
54555;SDS011;57291;37.520;15.106;2023-02-28T15:03:31;70.30;;;8.98;;
54555;SDS011;57291;37.520;15.106;2023-02-28T15:06:03;63.60;;;7.80;;
54555;SDS011;57291;37.520;15.106;2023-02-28T15:08:32;83.70;;;9.60;;
54555;SDS011;57291;37.520;15.106;2023-02-28T15:11:23;89.93;;;10.15;;
54555;SDS011;57291;37.520;15.106;2023-02-28T15:13:51;67.35;;;8.65;;
54555;SDS011;57291;37.520;15.106;2023-02-28T15:16:30;103.55;;;11.55;;
54555;SDS011;57291;37.520;15.106;2023-02-28T15:19:05;85.13;;;11.20;;
54555;SDS011;57291;37.520;15.106;2023-02-28T15:21:39;71.25;;;8.63;;
54555;SDS011;57291;37.520;15.106;2023-02-28T15:24:13;78.30;;;10.05;;
54555;SDS011;57291;37.520;15.106;2023-02-28T15:26:54;102.85;;;9.57;;
54555;SDS011;57291;37.520;15.106;2023-02-28T15:29:25;78.82;;;9.27;;
54555;SDS011;57291;37.520;15.106;2023-02-28T15:32:01;79.30;;;10.00;;
54555;SDS011;57291;37.520;15.106;2023-02-28T15:34:35;88.50;;;9.10;;
54555;SDS011;57291;37.520;15.106;2023-02-28T15:40:16;74.32;;;10.30;;
54555;SDS011;57291;37.520;15.106;2023-02-28T15:48:29;82.65;;;9.88;;
54555;SDS011;57291;37.520;15.106;2023-02-28T15:51:01;81.82;;;9.30;;
54555;SDS011;57291;37.520;15.106;2023-02-28T15:53:30;62.85;;;7.78;;
54555;SDS011;57291;37.520;15.106;2023-02-28T15:56:03;66.82;;;9.15;;
54555;SDS011;57291;37.520;15.106;2023-02-28T15:58:34;78.75;;;8.65;;
54555;SDS011;57291;37.520;15.106;2023-02-28T16:01:05;58.35;;;8.35;;
54555;SDS011;57291;37.520;15.106;2023-02-28T16:03:38;69.65;;;8.68;;
54555;SDS011;57291;37.520;15.106;2023-02-28T16:06:19;62.90;;;8.88;;
54555;SDS011;57291;37.520;15.106;2023-02-28T16:08:48;66.05;;;8.07;;
54555;SDS011;57291;37.520;15.106;2023-02-28T16:11:18;74.65;;;9.60;;
54555;SDS011;57291;37.520;15.106;2023-02-28T16:13:46;62.42;;;7.72;;
54555;SDS011;57291;37.520;15.106;2023-02-28T16:16:19;70.18;;;8.20;;
54555;SDS011;57291;37.520;15.106;2023-02-28T16:18:52;81.70;;;9.23;;
54555;SDS011;57291;37.520;15.106;2023-02-28T16:21:21;61.65;;;8.68;;
54555;SDS011;57291;37.520;15.106;2023-02-28T16:23:52;60.78;;;7.80;;
54555;SDS011;57291;37.520;15.106;2023-02-28T16:26:21;71.28;;;8.82;;
54555;SDS011;57291;37.520;15.106;2023-02-28T16:28:51;68.53;;;7.90;;
54555;SDS011;57291;37.520;15.106;2023-02-28T16:31:19;66.65;;;7.93;;
54555;SDS011;57291;37.520;15.106;2023-02-28T16:33:47;65.32;;;8.43;;
54555;SDS011;57291;37.520;15.106;2023-02-28T16:36:18;64.75;;;8.18;;
54555;SDS011;57291;37.520;15.106;2023-02-28T16:38:47;74.70;;;7.32;;
54555;SDS011;57291;37.520;15.106;2023-02-28T16:41:16;60.35;;;7.32;;
54555;SDS011;57291;37.520;15.106;2023-02-28T16:43:47;66.37;;;7.97;;
54555;SDS011;57291;37.520;15.106;2023-02-28T16:46:18;70.53;;;9.30;;
54555;SDS011;57291;37.520;15.106;2023-02-28T16:48:47;56.13;;;7.93;;
54555;SDS011;57291;37.520;15.106;2023-02-28T16:51:18;64.50;;;7.70;;
54555;SDS011;57291;37.520;15.106;2023-02-28T16:53:45;61.85;;;7.45;;
54555;SDS011;57291;37.520;15.106;2023-02-28T16:56:19;60.38;;;8.02;;
54555;SDS011;57291;37.520;15.106;2023-02-28T16:58:49;65.80;;;7.60;;
54555;SDS011;57291;37.520;15.106;2023-02-28T17:01:17;59.25;;;7.78;;
54555;SDS011;57291;37.520;15.106;2023-02-28T17:03:50;69.85;;;9.18;;
54555;SDS011;57291;37.520;15.106;2023-02-28T17:06:22;59.70;;;7.53;;
54555;SDS011;57291;37.520;15.106;2023-02-28T17:08:51;61.05;;;7.57;;
54555;SDS011;57291;37.520;15.106;2023-02-28T17:11:19;72.55;;;8.35;;
54555;SDS011;57291;37.520;15.106;2023-02-28T17:13:48;57.28;;;8.25;;
54555;SDS011;57291;37.520;15.106;2023-02-28T17:16:25;60.65;;;7.50;;
54555;SDS011;57291;37.520;15.106;2023-02-28T17:18:57;61.45;;;8.90;;
54555;SDS011;57291;37.520;15.106;2023-02-28T17:21:27;67.45;;;10.07;;
54555;SDS011;57291;37.520;15.106;2023-02-28T17:23:54;69.22;;;9.43;;
54555;SDS011;57291;37.520;15.106;2023-02-28T17:26:22;70.68;;;9.00;;
54555;SDS011;57291;37.520;15.106;2023-02-28T17:28:55;58.35;;;8.23;;
54555;SDS011;57291;37.520;15.106;2023-02-28T17:31:26;77.32;;;9.57;;
54555;SDS011;57291;37.520;15.106;2023-02-28T17:33:54;69.00;;;10.65;;
54555;SDS011;57291;37.520;15.106;2023-02-28T17:36:22;65.18;;;9.70;;
54555;SDS011;57291;37.520;15.106;2023-02-28T17:38:53;57.65;;;8.77;;